Songkhla, Thailand
Current Conditions -  °F | °C
As of 7:00 PM on Wednesday 28 Jan 2015 (Local Time) from VTSS Reporting Station
Broken Clouds Broken Clouds  
Wind Chill: 81°   Ceiling: 30000
Heat Index: 83°   Visibility: 6mi
Dew Point: 66°   Wind: 7mph
Humidity: 61%   Direction: 30°NNE
Pressure: 29.83"   Gusts: NA
Location:  7.21°N, 100.56°E
Report Text: VTSS 281200Z 03006KT 9999 FEW020 BKN300 27/19 Q1010 A2984 NOSIG
Loading
Personal Weather Stations






























Interactive Weather Map New forecast layout! Learn more

10-Day Weather Forecast

Advertisements
Track Severe Weather on mobile